sensor_id;sensor_type;location;lat;lon;timestamp;temperature;humidity
18794;DHT22;29610;49.022;12.114;2022-11-11T00:00:04;7.40;99.90
18794;DHT22;29610;49.022;12.114;2022-11-11T00:02:54;7.30;99.90
18794;DHT22;29610;49.022;12.114;2022-11-11T00:05:42;7.40;99.90
18794;DHT22;29610;49.022;12.114;2022-11-11T00:08:30;7.40;99.90
18794;DHT22;29610;49.022;12.114;2022-11-11T00:11:18;7.40;99.90
18794;DHT22;29610;49.022;12.114;2022-11-11T00:14:05;7.40;99.90
18794;DHT22;29610;49.022;12.114;2022-11-11T00:16:52;7.40;99.90
18794;DHT22;29610;49.022;12.114;2022-11-11T00:19:57;7.30;99.90
18794;DHT22;29610;49.022;12.114;2022-11-11T00:23:04;7.30;99.90
18794;DHT22;29610;49.022;12.114;2022-11-11T00:26:12;7.30;99.90
18794;DHT22;29610;49.022;12.114;2022-11-11T00:29:20;7.20;99.90
18794;DHT22;29610;49.022;12.114;2022-11-11T00:32:08;7.10;99.90
18794;DHT22;29610;49.022;12.114;2022-11-11T00:35:13;7.10;99.90
18794;DHT22;29610;49.022;12.114;2022-11-11T00:38:18;7.10;99.90
18794;DHT22;29610;49.022;12.114;2022-11-11T00:41:24;7.10;99.90
18794;DHT22;29610;49.022;12.114;2022-11-11T00:44:12;7.10;99.90
18794;DHT22;29610;49.022;12.114;2022-11-11T00:46:59;7.10;99.90
18794;DHT22;29610;49.022;12.114;2022-11-11T00:50:05;7.10;99.90
18794;DHT22;29610;49.022;12.114;2022-11-11T00:53:15;7.10;99.90
18794;DHT22;29610;49.022;12.114;2022-11-11T00:56:11;7.00;99.90
18794;DHT22;29610;49.022;12.114;2022-11-11T00:58:59;7.00;99.90
18794;DHT22;29610;49.022;12.114;2022-11-11T01:01:47;7.00;99.90
18794;DHT22;29610;49.022;12.114;2022-11-11T01:04:34;7.00;99.90
18794;DHT22;29610;49.022;12.114;2022-11-11T01:07:21;7.00;99.90
18794;DHT22;29610;49.022;12.114;2022-11-11T01:10:09;7.00;99.90
18794;DHT22;29610;49.022;12.114;2022-11-11T01:12:57;7.00;99.90
18794;DHT22;29610;49.022;12.114;2022-11-11T01:16:01;6.90;99.90
18794;DHT22;29610;49.022;12.114;2022-11-11T01:18:51;6.90;99.90
18794;DHT22;29610;49.022;12.114;2022-11-11T01:21:39;6.90;99.90
18794;DHT22;29610;49.022;12.114;2022-11-11T01:24:27;6.80;99.90
18794;DHT22;29610;49.022;12.114;2022-11-11T01:27:13;6.90;99.90
18794;DHT22;29610;49.022;12.114;2022-11-11T01:30:01;6.90;99.90
18794;DHT22;29610;49.022;12.114;2022-11-11T01:32:49;6.90;99.90
18794;DHT22;29610;49.022;12.114;2022-11-11T01:35:37;6.90;99.90
18794;DHT22;29610;49.022;12.114;2022-11-11T01:38:25;6.90;99.90
18794;DHT22;29610;49.022;12.114;2022-11-11T01:41:15;6.90;99.90
18794;DHT22;29610;49.022;12.114;2022-11-11T01:44:42;6.90;99.90
18794;DHT22;29610;49.022;12.114;2022-11-11T01:47:32;6.90;99.90
18794;DHT22;29610;49.022;12.114;2022-11-11T01:50:56;6.90;99.90
18794;DHT22;29610;49.022;12.114;2022-11-11T01:53:45;7.00;99.90
18794;DHT22;29610;49.022;12.114;2022-11-11T01:56:38;7.00;99.90
18794;DHT22;29610;49.022;12.114;2022-11-11T01:59:27;7.00;99.90
18794;DHT22;29610;49.022;12.114;2022-11-11T02:02:19;7.00;99.90
18794;DHT22;29610;49.022;12.114;2022-11-11T02:05:14;7.00;99.90
18794;DHT22;29610;49.022;12.114;2022-11-11T02:08:27;7.00;99.90
18794;DHT22;29610;49.022;12.114;2022-11-11T02:11:19;7.00;99.90
18794;DHT22;29610;49.022;12.114;2022-11-11T02:14:22;7.00;99.90
18794;DHT22;29610;49.022;12.114;2022-11-11T02:17:23;7.10;99.90
18794;DHT22;29610;49.022;12.114;2022-11-11T02:20:14;7.10;99.90
18794;DHT22;29610;49.022;12.114;2022-11-11T02:23:07;7.10;99.90
18794;DHT22;29610;49.022;12.114;2022-11-11T02:26:02;7.10;99.90
18794;DHT22;29610;49.022;12.114;2022-11-11T02:28:52;7.10;99.90
18794;DHT22;29610;49.022;12.114;2022-11-11T02:31:41;7.10;99.90
18794;DHT22;29610;49.022;12.114;2022-11-11T02:34:29;7.20;99.90
18794;DHT22;29610;49.022;12.114;2022-11-11T02:37:20;7.20;99.90
18794;DHT22;29610;49.022;12.114;2022-11-11T02:40:09;7.20;99.90
18794;DHT22;29610;49.022;12.114;2022-11-11T02:43:01;7.20;99.90
18794;DHT22;29610;49.022;12.114;2022-11-11T02:45:48;7.30;99.90
18794;DHT22;29610;49.022;12.114;2022-11-11T02:48:36;7.20;99.90
18794;DHT22;29610;49.022;12.114;2022-11-11T02:51:23;7.20;99.90
18794;DHT22;29610;49.022;12.114;2022-11-11T02:54:10;7.10;99.90
18794;DHT22;29610;49.022;12.114;2022-11-11T02:56:57;7.10;99.90
18794;DHT22;29610;49.022;12.114;2022-11-11T02:59:56;7.10;99.90
18794;DHT22;29610;49.022;12.114;2022-11-11T03:02:45;7.10;99.90
18794;DHT22;29610;49.022;12.114;2022-11-11T03:05:33;7.10;99.90
18794;DHT22;29610;49.022;12.114;2022-11-11T03:08:20;7.10;99.90
18794;DHT22;29610;49.022;12.114;2022-11-11T03:11:07;7.00;99.90
18794;DHT22;29610;49.022;12.114;2022-11-11T03:13:55;7.00;99.90
18794;DHT22;29610;49.022;12.114;2022-11-11T03:16:45;7.10;99.90
18794;DHT22;29610;49.022;12.114;2022-11-11T03:19:49;7.10;99.90
18794;DHT22;29610;49.022;12.114;2022-11-11T03:22:36;7.10;99.90
18794;DHT22;29610;49.022;12.114;2022-11-11T03:25:41;7.00;99.90
18794;DHT22;29610;49.022;12.114;2022-11-11T03:28:29;7.00;99.90
18794;DHT22;29610;49.022;12.114;2022-11-11T03:31:16;7.10;99.90
18794;DHT22;29610;49.022;12.114;2022-11-11T03:34:05;7.00;99.90
18794;DHT22;29610;49.022;12.114;2022-11-11T03:37:04;7.00;99.90
18794;DHT22;29610;49.022;12.114;2022-11-11T03:40:11;7.00;99.90
18794;DHT22;29610;49.022;12.114;2022-11-11T03:42:58;7.00;99.90
18794;DHT22;29610;49.022;12.114;2022-11-11T03:45:50;7.10;99.90
18794;DHT22;29610;49.022;12.114;2022-11-11T03:48:37;7.10;99.90
18794;DHT22;29610;49.022;12.114;2022-11-11T03:51:25;7.00;99.90
18794;DHT22;29610;49.022;12.114;2022-11-11T03:54:12;7.00;99.90
18794;DHT22;29610;49.022;12.114;2022-11-11T03:57:00;7.00;99.90
18794;DHT22;29610;49.022;12.114;2022-11-11T04:00:01;6.90;99.90
18794;DHT22;29610;49.022;12.114;2022-11-11T04:03:01;6.80;99.90
18794;DHT22;29610;49.022;12.114;2022-11-11T04:06:08;6.90;99.90
18794;DHT22;29610;49.022;12.114;2022-11-11T04:09:15;6.80;99.90
18794;DHT22;29610;49.022;12.114;2022-11-11T04:12:20;6.80;99.90
18794;DHT22;29610;49.022;12.114;2022-11-11T04:15:08;6.80;99.90
18794;DHT22;29610;49.022;12.114;2022-11-11T04:18:24;6.80;99.90
18794;DHT22;29610;49.022;12.114;2022-11-11T04:21:25;6.80;99.90
18794;DHT22;29610;49.022;12.114;2022-11-11T04:24:32;6.80;99.90
18794;DHT22;29610;49.022;12.114;2022-11-11T04:27:36;6.80;99.90
18794;DHT22;29610;49.022;12.114;2022-11-11T04:30:24;6.80;99.90
18794;DHT22;29610;49.022;12.114;2022-11-11T04:33:10;6.70;99.90
18794;DHT22;29610;49.022;12.114;2022-11-11T04:35:57;6.70;99.90
18794;DHT22;29610;49.022;12.114;2022-11-11T04:38:44;6.70;99.90
18794;DHT22;29610;49.022;12.114;2022-11-11T04:41:50;6.70;99.90
18794;DHT22;29610;49.022;12.114;2022-11-11T04:44:53;6.60;99.90
18794;DHT22;29610;49.022;12.114;2022-11-11T04:47:59;6.60;99.90
18794;DHT22;29610;49.022;12.114;2022-11-11T04:50:47;6.60;99.90
18794;DHT22;29610;49.022;12.114;2022-11-11T04:53:34;6.60;99.90
18794;DHT22;29610;49.022;12.114;2022-11-11T04:56:21;6.60;99.90
18794;DHT22;29610;49.022;12.114;2022-11-11T04:59:28;6.50;99.90
18794;DHT22;29610;49.022;12.114;2022-11-11T05:02:15;6.50;99.90
18794;DHT22;29610;49.022;12.114;2022-11-11T05:05:19;6.50;99.90
18794;DHT22;29610;49.022;12.114;2022-11-11T05:08:07;6.50;99.90
18794;DHT22;29610;49.022;12.114;2022-11-11T05:11:12;6.50;99.90
18794;DHT22;29610;49.022;12.114;2022-11-11T05:14:00;6.50;99.90
18794;DHT22;29610;49.022;12.114;2022-11-11T05:17:09;6.50;99.90
18794;DHT22;29610;49.022;12.114;2022-11-11T05:20:14;6.50;99.90
18794;DHT22;29610;49.022;12.114;2022-11-11T05:23:23;6.50;99.90
18794;DHT22;29610;49.022;12.114;2022-11-11T05:26:31;6.50;99.90
18794;DHT22;29610;49.022;12.114;2022-11-11T05:29:17;6.50;99.90
18794;DHT22;29610;49.022;12.114;2022-11-11T05:32:06;6.50;99.90
18794;DHT22;29610;49.022;12.114;2022-11-11T05:34:55;6.50;99.90
18794;DHT22;29610;49.022;12.114;2022-11-11T05:37:42;6.60;99.90
18794;DHT22;29610;49.022;12.114;2022-11-11T05:40:50;6.60;99.90
18794;DHT22;29610;49.022;12.114;2022-11-11T05:43:37;6.50;99.90
18794;DHT22;29610;49.022;12.114;2022-11-11T05:46:24;6.50;99.90
18794;DHT22;29610;49.022;12.114;2022-11-11T05:49:11;6.50;99.90
18794;DHT22;29610;49.022;12.114;2022-11-11T05:52:03;6.40;99.90
18794;DHT22;29610;49.022;12.114;2022-11-11T05:54:51;6.30;99.90
18794;DHT22;29610;49.022;12.114;2022-11-11T05:57:38;6.30;99.90
18794;DHT22;29610;49.022;12.114;2022-11-11T06:00:26;6.30;99.90
18794;DHT22;29610;49.022;12.114;2022-11-11T06:03:13;6.30;99.90
18794;DHT22;29610;49.022;12.114;2022-11-11T06:06:00;6.30;99.90
18794;DHT22;29610;49.022;12.114;2022-11-11T06:08:49;6.30;99.90
18794;DHT22;29610;49.022;12.114;2022-11-11T06:11:36;6.40;99.90
18794;DHT22;29610;49.022;12.114;2022-11-11T06:14:23;6.30;99.90
18794;DHT22;29610;49.022;12.114;2022-11-11T06:17:11;6.30;99.90
18794;DHT22;29610;49.022;12.114;2022-11-11T06:19:58;6.30;99.90
18794;DHT22;29610;49.022;12.114;2022-11-11T06:22:45;6.30;99.90
18794;DHT22;29610;49.022;12.114;2022-11-11T06:25:43;6.30;99.90
18794;DHT22;29610;49.022;12.114;2022-11-11T06:28:49;6.30;99.90
18794;DHT22;29610;49.022;12.114;2022-11-11T06:31:37;6.20;99.90
18794;DHT22;29610;49.022;12.114;2022-11-11T06:34:28;6.30;99.90
18794;DHT22;29610;49.022;12.114;2022-11-11T06:37:15;6.30;99.90
18794;DHT22;29610;49.022;12.114;2022-11-11T06:40:02;6.30;99.90
18794;DHT22;29610;49.022;12.114;2022-11-11T06:42:51;6.40;99.90
18794;DHT22;29610;49.022;12.114;2022-11-11T06:45:38;6.40;99.90
18794;DHT22;29610;49.022;12.114;2022-11-11T06:48:27;6.40;99.90
18794;DHT22;29610;49.022;12.114;2022-11-11T06:51:14;6.40;99.90
18794;DHT22;29610;49.022;12.114;2022-11-11T06:54:02;6.50;99.90
18794;DHT22;29610;49.022;12.114;2022-11-11T06:56:49;6.50;99.90
18794;DHT22;29610;49.022;12.114;2022-11-11T06:59:37;6.50;99.90
18794;DHT22;29610;49.022;12.114;2022-11-11T07:02:24;6.60;99.90
18794;DHT22;29610;49.022;12.114;2022-11-11T07:05:11;6.60;99.90
18794;DHT22;29610;49.022;12.114;2022-11-11T07:08:01;6.60;99.90
18794;DHT22;29610;49.022;12.114;2022-11-11T07:10:49;6.70;99.90
18794;DHT22;29610;49.022;12.114;2022-11-11T07:13:36;6.60;99.90
18794;DHT22;29610;49.022;12.114;2022-11-11T07:16:24;6.60;99.90
18794;DHT22;29610;49.022;12.114;2022-11-11T07:19:12;6.70;99.90
18794;DHT22;29610;49.022;12.114;2022-11-11T07:21:59;6.70;99.90
18794;DHT22;29610;49.022;12.114;2022-11-11T07:24:46;6.70;99.90
18794;DHT22;29610;49.022;12.114;2022-11-11T07:27:36;6.80;99.90
18794;DHT22;29610;49.022;12.114;2022-11-11T07:30:24;6.70;99.90
18794;DHT22;29610;49.022;12.114;2022-11-11T07:33:12;6.70;99.90
18794;DHT22;29610;49.022;12.114;2022-11-11T07:36:03;6.70;99.90
18794;DHT22;29610;49.022;12.114;2022-11-11T07:38:51;6.80;99.90
18794;DHT22;29610;49.022;12.114;2022-11-11T07:41:38;6.80;99.90
18794;DHT22;29610;49.022;12.114;2022-11-11T07:44:25;6.70;99.90
18794;DHT22;29610;49.022;12.114;2022-11-11T07:47:12;6.70;99.90
18794;DHT22;29610;49.022;12.114;2022-11-11T07:50:01;6.70;99.90
18794;DHT22;29610;49.022;12.114;2022-11-11T07:52:55;6.70;99.90
18794;DHT22;29610;49.022;12.114;2022-11-11T07:55:44;6.70;99.90
18794;DHT22;29610;49.022;12.114;2022-11-11T07:58:31;6.60;99.90
18794;DHT22;29610;49.022;12.114;2022-11-11T08:01:19;6.70;99.90
18794;DHT22;29610;49.022;12.114;2022-11-11T08:04:06;6.70;99.90
18794;DHT22;29610;49.022;12.114;2022-11-11T08:06:55;6.80;99.90
18794;DHT22;29610;49.022;12.114;2022-11-11T08:09:42;6.90;99.90
18794;DHT22;29610;49.022;12.114;2022-11-11T08:12:29;6.90;99.90
18794;DHT22;29610;49.022;12.114;2022-11-11T08:15:34;6.80;99.90
18794;DHT22;29610;49.022;12.114;2022-11-11T08:18:21;6.70;99.90
18794;DHT22;29610;49.022;12.114;2022-11-11T08:21:08;6.80;99.90
18794;DHT22;29610;49.022;12.114;2022-11-11T08:23:57;6.70;99.90
18794;DHT22;29610;49.022;12.114;2022-11-11T08:27:04;6.80;99.90
18794;DHT22;29610;49.022;12.114;2022-11-11T08:29:51;6.90;99.90
18794;DHT22;29610;49.022;12.114;2022-11-11T08:32:38;6.90;99.90
18794;DHT22;29610;49.022;12.114;2022-11-11T08:35:25;6.90;99.90
18794;DHT22;29610;49.022;12.114;2022-11-11T08:38:13;6.90;99.90
18794;DHT22;29610;49.022;12.114;2022-11-11T08:41:03;6.70;99.90
18794;DHT22;29610;49.022;12.114;2022-11-11T08:43:52;6.80;99.90
18794;DHT22;29610;49.022;12.114;2022-11-11T08:46:40;6.70;99.90
18794;DHT22;29610;49.022;12.114;2022-11-11T08:49:27;6.60;99.90
18794;DHT22;29610;49.022;12.114;2022-11-11T08:52:14;6.80;99.90
18794;DHT22;29610;49.022;12.114;2022-11-11T08:55:01;6.70;99.90
18794;DHT22;29610;49.022;12.114;2022-11-11T08:57:56;6.80;99.90
18794;DHT22;29610;49.022;12.114;2022-11-11T09:00:45;6.80;99.90
18794;DHT22;29610;49.022;12.114;2022-11-11T09:03:34;6.90;99.90
18794;DHT22;29610;49.022;12.114;2022-11-11T09:06:21;7.10;99.90
18794;DHT22;29610;49.022;12.114;2022-11-11T09:09:10;7.10;99.90
18794;DHT22;29610;49.022;12.114;2022-11-11T09:11:57;7.10;99.90
18794;DHT22;29610;49.022;12.114;2022-11-11T09:14:45;7.20;99.90
18794;DHT22;29610;49.022;12.114;2022-11-11T09:17:34;7.30;99.90
18794;DHT22;29610;49.022;12.114;2022-11-11T09:20:24;7.40;99.90
18794;DHT22;29610;49.022;12.114;2022-11-11T09:23:11;7.40;99.90
18794;DHT22;29610;49.022;12.114;2022-11-11T09:26:00;7.70;99.90
18794;DHT22;29610;49.022;12.114;2022-11-11T09:28:48;7.70;99.90
18794;DHT22;29610;49.022;12.114;2022-11-11T09:31:38;7.90;99.90
18794;DHT22;29610;49.022;12.114;2022-11-11T09:34:31;8.00;99.90
18794;DHT22;29610;49.022;12.114;2022-11-11T09:37:18;8.30;99.90
18794;DHT22;29610;49.022;12.114;2022-11-11T09:40:06;8.40;99.90
18794;DHT22;29610;49.022;12.114;2022-11-11T09:43:04;8.60;99.90
18794;DHT22;29610;49.022;12.114;2022-11-11T09:46:10;8.60;99.90
18794;DHT22;29610;49.022;12.114;2022-11-11T09:52:46;8.50;99.90
18794;DHT22;29610;49.022;12.114;2022-11-11T09:55:41;8.70;99.90
18794;DHT22;29610;49.022;12.114;2022-11-11T09:58:33;8.70;99.90
18794;DHT22;29610;49.022;12.114;2022-11-11T10:01:25;8.40;99.90
18794;DHT22;29610;49.022;12.114;2022-11-11T10:04:27;8.50;99.90
18794;DHT22;29610;49.022;12.114;2022-11-11T10:07:27;8.60;99.90
18794;DHT22;29610;49.022;12.114;2022-11-11T10:10:28;8.60;99.90
18794;DHT22;29610;49.022;12.114;2022-11-11T10:13:28;8.80;99.90
18794;DHT22;29610;49.022;12.114;2022-11-11T10:16:22;8.80;99.90
18794;DHT22;29610;49.022;12.114;2022-11-11T10:19:28;8.90;99.90
18794;DHT22;29610;49.022;12.114;2022-11-11T10:22:24;9.10;99.90
18794;DHT22;29610;49.022;12.114;2022-11-11T10:25:20;9.20;99.90
18794;DHT22;29610;49.022;12.114;2022-11-11T10:28:15;9.30;99.90
18794;DHT22;29610;49.022;12.114;2022-11-11T10:31:13;9.30;99.90
18794;DHT22;29610;49.022;12.114;2022-11-11T10:34:08;9.20;99.90
18794;DHT22;29610;49.022;12.114;2022-11-11T10:36:58;9.30;99.90
18794;DHT22;29610;49.022;12.114;2022-11-11T10:39:59;9.50;99.90
18794;DHT22;29610;49.022;12.114;2022-11-11T10:42:50;9.50;99.90
18794;DHT22;29610;49.022;12.114;2022-11-11T10:45:43;9.30;99.90
18794;DHT22;29610;49.022;12.114;2022-11-11T10:48:46;9.30;99.90
18794;DHT22;29610;49.022;12.114;2022-11-11T10:51:44;9.50;99.90
18794;DHT22;29610;49.022;12.114;2022-11-11T10:54:40;9.40;99.90
18794;DHT22;29610;49.022;12.114;2022-11-11T10:57:38;9.50;99.90
18794;DHT22;29610;49.022;12.114;2022-11-11T11:00:34;9.60;99.90
18794;DHT22;29610;49.022;12.114;2022-11-11T11:03:32;9.50;99.90
18794;DHT22;29610;49.022;12.114;2022-11-11T11:06:25;9.60;99.90
18794;DHT22;29610;49.022;12.114;2022-11-11T11:09:21;9.70;99.90
18794;DHT22;29610;49.022;12.114;2022-11-11T11:12:16;9.50;99.90
18794;DHT22;29610;49.022;12.114;2022-11-11T11:15:15;9.50;99.90
18794;DHT22;29610;49.022;12.114;2022-11-11T11:18:08;9.50;99.90
18794;DHT22;29610;49.022;12.114;2022-11-11T11:20:59;9.50;99.90
18794;DHT22;29610;49.022;12.114;2022-11-11T11:23:48;9.40;99.90
18794;DHT22;29610;49.022;12.114;2022-11-11T11:26:42;9.30;99.90
18794;DHT22;29610;49.022;12.114;2022-11-11T11:29:33;9.30;99.90
18794;DHT22;29610;49.022;12.114;2022-11-11T11:32:27;9.40;99.90
18794;DHT22;29610;49.022;12.114;2022-11-11T11:35:33;9.10;99.90
18794;DHT22;29610;49.022;12.114;2022-11-11T11:38:39;9.00;99.90
18794;DHT22;29610;49.022;12.114;2022-11-11T11:41:39;9.20;99.90
18794;DHT22;29610;49.022;12.114;2022-11-11T11:44:29;9.50;99.90
18794;DHT22;29610;49.022;12.114;2022-11-11T11:47:31;9.60;99.90
18794;DHT22;29610;49.022;12.114;2022-11-11T11:50:49;9.60;99.90
18794;DHT22;29610;49.022;12.114;2022-11-11T11:53:48;9.60;99.90
18794;DHT22;29610;49.022;12.114;2022-11-11T11:56:46;9.60;99.90
18794;DHT22;29610;49.022;12.114;2022-11-11T11:59:40;9.60;99.90
18794;DHT22;29610;49.022;12.114;2022-11-11T12:02:47;9.50;99.90
18794;DHT22;29610;49.022;12.114;2022-11-11T12:06:10;9.60;99.90
18794;DHT22;29610;49.022;12.114;2022-11-11T12:09:13;9.40;99.90
18794;DHT22;29610;49.022;12.114;2022-11-11T12:12:18;9.40;99.90
18794;DHT22;29610;49.022;12.114;2022-11-11T12:15:22;9.40;99.90
18794;DHT22;29610;49.022;12.114;2022-11-11T12:18:39;9.50;99.90
18794;DHT22;29610;49.022;12.114;2022-11-11T12:21:43;9.40;99.90
18794;DHT22;29610;49.022;12.114;2022-11-11T12:24:50;9.50;99.90
18794;DHT22;29610;49.022;12.114;2022-11-11T12:27:55;9.40;99.90
18794;DHT22;29610;49.022;12.114;2022-11-11T12:30:50;9.40;99.90
18794;DHT22;29610;49.022;12.114;2022-11-11T12:34:12;9.40;99.90
18794;DHT22;29610;49.022;12.114;2022-11-11T12:37:17;9.60;99.90
18794;DHT22;29610;49.022;12.114;2022-11-11T12:40:19;9.60;99.90
18794;DHT22;29610;49.022;12.114;2022-11-11T12:43:20;9.60;99.90
18794;DHT22;29610;49.022;12.114;2022-11-11T12:46:21;9.20;99.90
18794;DHT22;29610;49.022;12.114;2022-11-11T12:49:39;9.20;99.90
18794;DHT22;29610;49.022;12.114;2022-11-11T12:52:44;9.40;99.90
18794;DHT22;29610;49.022;12.114;2022-11-11T12:55:51;9.50;99.90
18794;DHT22;29610;49.022;12.114;2022-11-11T12:58:52;9.80;99.90
18794;DHT22;29610;49.022;12.114;2022-11-11T13:01:54;9.70;99.90
18794;DHT22;29610;49.022;12.114;2022-11-11T13:04:55;9.80;99.90
18794;DHT22;29610;49.022;12.114;2022-11-11T13:08:15;9.90;99.90
18794;DHT22;29610;49.022;12.114;2022-11-11T13:11:28;9.90;99.90
18794;DHT22;29610;49.022;12.114;2022-11-11T13:14:34;10.00;99.90
18794;DHT22;29610;49.022;12.114;2022-11-11T13:17:30;9.80;99.90
18794;DHT22;29610;49.022;12.114;2022-11-11T13:20:45;9.80;99.90
18794;DHT22;29610;49.022;12.114;2022-11-11T13:23:39;10.00;99.90
18794;DHT22;29610;49.022;12.114;2022-11-11T13:26:30;10.00;99.90
18794;DHT22;29610;49.022;12.114;2022-11-11T13:29:43;10.00;99.90
18794;DHT22;29610;49.022;12.114;2022-11-11T13:32:52;9.80;99.90
18794;DHT22;29610;49.022;12.114;2022-11-11T13:35:48;9.80;99.90
18794;DHT22;29610;49.022;12.114;2022-11-11T13:38:44;9.80;99.90
18794;DHT22;29610;49.022;12.114;2022-11-11T13:41:36;9.70;99.90
18794;DHT22;29610;49.022;12.114;2022-11-11T13:44:28;9.80;99.90
18794;DHT22;29610;49.022;12.114;2022-11-11T13:47:21;9.90;99.90
18794;DHT22;29610;49.022;12.114;2022-11-11T13:50:22;10.10;99.90
18794;DHT22;29610;49.022;12.114;2022-11-11T13:53:24;10.00;99.90
18794;DHT22;29610;49.022;12.114;2022-11-11T13:56:22;9.60;99.90
18794;DHT22;29610;49.022;12.114;2022-11-11T13:59:20;9.20;99.90
18794;DHT22;29610;49.022;12.114;2022-11-11T14:02:29;8.90;99.90
18794;DHT22;29610;49.022;12.114;2022-11-11T14:05:21;9.00;99.90
18794;DHT22;29610;49.022;12.114;2022-11-11T14:08:50;9.00;99.90
18794;DHT22;29610;49.022;12.114;2022-11-11T14:11:38;9.00;99.90
18794;DHT22;29610;49.022;12.114;2022-11-11T14:14:51;9.10;99.90
18794;DHT22;29610;49.022;12.114;2022-11-11T14:17:43;9.20;99.90
18794;DHT22;29610;49.022;12.114;2022-11-11T14:20:37;9.40;99.90
18794;DHT22;29610;49.022;12.114;2022-11-11T14:24:05;9.10;99.90
18794;DHT22;29610;49.022;12.114;2022-11-11T14:26:57;9.10;99.90
18794;DHT22;29610;49.022;12.114;2022-11-11T14:29:53;9.10;99.90
18794;DHT22;29610;49.022;12.114;2022-11-11T14:32:49;9.00;99.90
18794;DHT22;29610;49.022;12.114;2022-11-11T14:35:50;9.40;99.90
18794;DHT22;29610;49.022;12.114;2022-11-11T14:38:49;9.00;99.90
18794;DHT22;29610;49.022;12.114;2022-11-11T14:41:48;9.00;99.90
18794;DHT22;29610;49.022;12.114;2022-11-11T14:44:40;9.20;99.90
18794;DHT22;29610;49.022;12.114;2022-11-11T14:47:33;9.30;99.90
18794;DHT22;29610;49.022;12.114;2022-11-11T14:50:42;8.90;99.90
18794;DHT22;29610;49.022;12.114;2022-11-11T14:53:35;8.90;99.90
18794;DHT22;29610;49.022;12.114;2022-11-11T14:56:27;8.90;99.90
18794;DHT22;29610;49.022;12.114;2022-11-11T14:59:17;9.90;99.90
18794;DHT22;29610;49.022;12.114;2022-11-11T15:02:17;8.80;99.90
18794;DHT22;29610;49.022;12.114;2022-11-11T15:05:15;8.80;99.90
18794;DHT22;29610;49.022;12.114;2022-11-11T15:08:14;8.70;99.90
18794;DHT22;29610;49.022;12.114;2022-11-11T15:11:23;8.90;99.90
18794;DHT22;29610;49.022;12.114;2022-11-11T15:14:28;8.50;99.90
18794;DHT22;29610;49.022;12.114;2022-11-11T15:17:27;8.60;99.90
18794;DHT22;29610;49.022;12.114;2022-11-11T15:20:41;8.80;99.90
18794;DHT22;29610;49.022;12.114;2022-11-11T15:23:44;8.50;99.90
18794;DHT22;29610;49.022;12.114;2022-11-11T15:26:45;8.30;99.90
18794;DHT22;29610;49.022;12.114;2022-11-11T15:30:10;8.20;99.90
18794;DHT22;29610;49.022;12.114;2022-11-11T15:33:05;8.30;99.90
18794;DHT22;29610;49.022;12.114;2022-11-11T15:36:04;8.90;99.90
18794;DHT22;29610;49.022;12.114;2022-11-11T15:39:04;8.10;99.90
18794;DHT22;29610;49.022;12.114;2022-11-11T15:41:56;8.30;99.90
18794;DHT22;29610;49.022;12.114;2022-11-11T15:44:43;8.30;99.90
18794;DHT22;29610;49.022;12.114;2022-11-11T15:47:35;8.10;99.90
18794;DHT22;29610;49.022;12.114;2022-11-11T15:50:32;7.80;99.90
18794;DHT22;29610;49.022;12.114;2022-11-11T15:53:23;7.80;99.90
18794;DHT22;29610;49.022;12.114;2022-11-11T15:56:26;8.60;99.90
18794;DHT22;29610;49.022;12.114;2022-11-11T15:59:16;7.60;99.90
18794;DHT22;29610;49.022;12.114;2022-11-11T16:02:08;7.50;99.90
18794;DHT22;29610;49.022;12.114;2022-11-11T16:05:17;7.60;99.90
18794;DHT22;29610;49.022;12.114;2022-11-11T16:08:07;7.50;99.90
18794;DHT22;29610;49.022;12.114;2022-11-11T16:10:58;7.50;99.90
18794;DHT22;29610;49.022;12.114;2022-11-11T16:13:49;7.60;99.90
18794;DHT22;29610;49.022;12.114;2022-11-11T16:16:45;8.70;99.90
18794;DHT22;29610;49.022;12.114;2022-11-11T16:19:35;7.60;99.90
18794;DHT22;29610;49.022;12.114;2022-11-11T16:22:36;7.70;99.90
18794;DHT22;29610;49.022;12.114;2022-11-11T16:25:26;7.70;99.90
18794;DHT22;29610;49.022;12.114;2022-11-11T16:28:14;7.70;99.90
18794;DHT22;29610;49.022;12.114;2022-11-11T16:31:20;7.70;99.90
18794;DHT22;29610;49.022;12.114;2022-11-11T16:34:41;7.60;99.90
18794;DHT22;29610;49.022;12.114;2022-11-11T16:37:51;7.70;99.90
18794;DHT22;29610;49.022;12.114;2022-11-11T16:40:41;7.80;99.90
18794;DHT22;29610;49.022;12.114;2022-11-11T16:43:31;7.70;99.90
18794;DHT22;29610;49.022;12.114;2022-11-11T16:46:48;7.70;99.90
18794;DHT22;29610;49.022;12.114;2022-11-11T16:49:37;7.80;99.90
18794;DHT22;29610;49.022;12.114;2022-11-11T16:52:32;7.70;99.90
18794;DHT22;29610;49.022;12.114;2022-11-11T16:55:30;7.60;99.90
18794;DHT22;29610;49.022;12.114;2022-11-11T16:58:21;7.50;99.90
18794;DHT22;29610;49.022;12.114;2022-11-11T17:01:09;6.20;99.90
18794;DHT22;29610;49.022;12.114;2022-11-11T17:03:58;7.50;99.90
18794;DHT22;29610;49.022;12.114;2022-11-11T17:06:49;7.40;99.90
18794;DHT22;29610;49.022;12.114;2022-11-11T17:09:46;7.40;99.90
18794;DHT22;29610;49.022;12.114;2022-11-11T17:12:37;7.20;99.90
18794;DHT22;29610;49.022;12.114;2022-11-11T17:15:25;7.20;99.90
18794;DHT22;29610;49.022;12.114;2022-11-11T17:18:12;7.40;99.90
18794;DHT22;29610;49.022;12.114;2022-11-11T17:21:01;7.30;99.90
18794;DHT22;29610;49.022;12.114;2022-11-11T17:23:54;7.30;99.90
18794;DHT22;29610;49.022;12.114;2022-11-11T17:26:41;7.60;99.90
18794;DHT22;29610;49.022;12.114;2022-11-11T17:29:35;7.50;99.90
18794;DHT22;29610;49.022;12.114;2022-11-11T17:32:35;7.50;99.90
18794;DHT22;29610;49.022;12.114;2022-11-11T17:35:29;7.50;99.90
18794;DHT22;29610;49.022;12.114;2022-11-11T17:38:17;7.50;99.90
18794;DHT22;29610;49.022;12.114;2022-11-11T17:41:12;7.60;99.90
18794;DHT22;29610;49.022;12.114;2022-11-11T17:44:00;7.60;99.90
18794;DHT22;29610;49.022;12.114;2022-11-11T17:46:48;7.50;99.90
18794;DHT22;29610;49.022;12.114;2022-11-11T17:49:36;7.70;99.90
18794;DHT22;29610;49.022;12.114;2022-11-11T17:52:47;7.40;99.90
18794;DHT22;29610;49.022;12.114;2022-11-11T17:55:37;7.40;99.90
18794;DHT22;29610;49.022;12.114;2022-11-11T17:58:24;8.10;99.90
18794;DHT22;29610;49.022;12.114;2022-11-11T18:01:22;7.30;99.90
18794;DHT22;29610;49.022;12.114;2022-11-11T18:04:15;7.40;99.90
18794;DHT22;29610;49.022;12.114;2022-11-11T18:07:15;7.50;99.90
18794;DHT22;29610;49.022;12.114;2022-11-11T18:10:02;7.50;99.90
18794;DHT22;29610;49.022;12.114;2022-11-11T18:12:56;7.80;99.90
18794;DHT22;29610;49.022;12.114;2022-11-11T18:15:45;7.50;99.90
18794;DHT22;29610;49.022;12.114;2022-11-11T18:18:32;7.50;99.90
18794;DHT22;29610;49.022;12.114;2022-11-11T18:21:28;7.60;99.90
18794;DHT22;29610;49.022;12.114;2022-11-11T18:24:22;7.50;99.90
18794;DHT22;29610;49.022;12.114;2022-11-11T18:27:10;7.60;99.90